Time;durP1;ratioP1;P1;durP2;ratioP2;P2;SDS_P1;SDS_P2;PMS_P1;PMS_P2;Temp;Humidity;BMP_temperature;BMP_pressure;BME280_temperature;BME280_humidity;BME280_pressure;Samples;Min_cycle;Max_cycle;Signal;HPM_P1;HPM_P2
2022/01/05 00:01:51;;;;;;;0.40;0.40;;;3.70;99.90;;;;;;5074833;28;20229;-79
2022/01/05 00:04:19;;;;;;;0.40;0.40;;;3.70;99.90;;;;;;5075456;28;20194;-80
2022/01/05 00:06:46;;;;;;;1.05;0.98;;;3.70;99.90;;;;;;5075160;28;20226;-79
2022/01/05 00:09:12;;;;;;;0.40;0.30;;;3.70;99.90;;;;;;5074723;28;20201;-79
2022/01/05 00:11:40;;;;;;;0.40;0.40;;;3.80;99.90;;;;;;5074963;28;20288;-79
2022/01/05 00:14:09;;;;;;;0.50;0.40;;;3.80;99.90;;;;;;5074751;28;20693;-79
2022/01/05 00:16:35;;;;;;;0.82;0.82;;;3.80;99.90;;;;;;5074364;28;20209;-79
2022/01/05 00:19:02;;;;;;;0.50;0.50;;;3.90;99.90;;;;;;5074702;28;20239;-79
2022/01/05 00:21:29;;;;;;;0.40;0.40;;;3.90;99.90;;;;;;5074443;28;20229;-80
2022/01/05 00:23:55;;;;;;;0.40;0.40;;;3.90;99.90;;;;;;5073993;28;20201;-79
2022/01/05 00:26:22;;;;;;;0.40;0.40;;;3.90;99.90;;;;;;5074598;28;20205;-79
2022/01/05 00:28:49;;;;;;;0.73;0.73;;;3.90;99.90;;;;;;5073997;28;20205;-79
2022/01/05 00:31:17;;;;;;;0.40;0.40;;;3.90;99.90;;;;;;5074260;28;20236;-78
2022/01/05 00:33:44;;;;;;;0.40;0.40;;;4.00;99.90;;;;;;5074175;28;20198;-79
2022/01/05 00:36:11;;;;;;;0.60;0.60;;;3.90;99.90;;;;;;5073444;28;20210;-80
2022/01/05 00:38:38;;;;;;;0.60;0.60;;;3.90;99.90;;;;;;5074223;28;20190;-79
2022/01/05 00:41:05;;;;;;;0.50;0.50;;;3.90;99.90;;;;;;5073697;28;20722;-78
2022/01/05 00:43:32;;;;;;;0.50;0.50;;;3.90;99.90;;;;;;5074076;28;20267;-79
2022/01/05 00:45:58;;;;;;;0.50;0.40;;;3.90;99.90;;;;;;5073789;28;20558;-79
2022/01/05 00:48:29;;;;;;;0.40;0.40;;;3.90;99.90;;;;;;5073835;28;20202;-79
2022/01/05 00:50:58;;;;;;;0.50;0.40;;;3.90;99.90;;;;;;5072745;28;20778;-79
2022/01/05 00:53:25;;;;;;;0.70;0.70;;;3.80;99.90;;;;;;5073603;28;20279;-79
2022/01/05 00:55:52;;;;;;;0.70;0.70;;;3.80;99.90;;;;;;5073920;28;20655;-79
2022/01/05 00:58:18;;;;;;;0.40;0.40;;;3.80;99.90;;;;;;5073681;28;20197;-79
2022/01/05 01:00:45;;;;;;;0.50;0.40;;;3.80;99.90;;;;;;5073256;28;20308;-77
2022/01/05 01:03:12;;;;;;;1.15;1.05;;;3.80;99.90;;;;;;5073236;28;20674;-78
2022/01/05 01:05:40;;;;;;;0.40;0.30;;;3.80;99.90;;;;;;5073895;28;20635;-79
2022/01/05 01:08:07;;;;;;;0.40;0.40;;;3.70;99.90;;;;;;5073108;28;20190;-80
2022/01/05 01:10:34;;;;;;;0.40;0.40;;;3.70;99.90;;;;;;5073031;28;20214;-79
2022/01/05 01:13:01;;;;;;;0.80;0.80;;;3.60;99.90;;;;;;5073313;28;20190;-80
2022/01/05 01:15:27;;;;;;;0.50;0.40;;;3.60;99.90;;;;;;5073343;28;20667;-79
2022/01/05 01:17:54;;;;;;;0.40;0.40;;;3.60;99.90;;;;;;5073554;28;20841;-79
2022/01/05 01:20:21;;;;;;;0.50;0.40;;;3.60;99.90;;;;;;5073947;28;20225;-79
2022/01/05 01:22:50;;;;;;;0.40;0.40;;;3.60;99.90;;;;;;5074034;28;20194;-78
2022/01/05 01:25:17;;;;;;;2.88;0.60;;;3.60;99.90;;;;;;5074516;28;20200;-79
2022/01/05 01:27:44;;;;;;;0.40;0.40;;;3.60;99.90;;;;;;5074346;28;20563;-79
2022/01/05 01:30:12;;;;;;;0.50;0.40;;;3.60;99.90;;;;;;5073276;28;20706;-79
2022/01/05 01:32:38;;;;;;;0.50;0.40;;;3.50;99.90;;;;;;5073675;28;20198;-80
2022/01/05 01:35:07;;;;;;;0.40;0.40;;;3.50;99.90;;;;;;5072968;28;20202;-80
2022/01/05 01:37:34;;;;;;;0.40;0.40;;;3.40;99.90;;;;;;5090034;28;20208;-79
2022/01/05 01:40:02;;;;;;;2.65;2.55;;;3.40;99.90;;;;;;5092461;28;20190;-80
2022/01/05 01:42:29;;;;;;;0.40;0.40;;;3.40;99.90;;;;;;5094292;28;20190;-80
2022/01/05 01:44:55;;;;;;;10.43;1.30;;;3.40;99.90;;;;;;5093495;28;20170;-78
2022/01/05 01:47:22;;;;;;;0.40;0.40;;;3.30;99.90;;;;;;5074429;28;20190;-79
2022/01/05 01:49:49;;;;;;;0.70;0.57;;;3.30;99.90;;;;;;5073746;28;20198;-79
2022/01/05 01:52:16;;;;;;;0.40;0.40;;;3.20;99.90;;;;;;5082264;28;20173;-79
2022/01/05 01:54:43;;;;;;;0.60;0.60;;;3.20;99.90;;;;;;5095714;28;20220;-79
2022/01/05 01:57:11;;;;;;;0.40;0.40;;;3.20;99.90;;;;;;5094199;28;20221;-79
2022/01/05 01:59:38;;;;;;;0.50;0.40;;;3.20;99.90;;;;;;5094364;28;20190;-79
2022/01/05 02:02:05;;;;;;;0.40;0.40;;;3.10;99.90;;;;;;5094968;28;20212;-79
2022/01/05 02:04:34;;;;;;;0.40;0.40;;;3.10;99.90;;;;;;5091244;28;20201;-79
2022/01/05 02:07:01;;;;;;;0.40;0.40;;;3.10;99.90;;;;;;5073013;28;20190;-79
2022/01/05 02:09:27;;;;;;;0.50;0.40;;;3.10;99.90;;;;;;5072591;28;20198;-79
2022/01/05 02:11:54;;;;;;;0.40;0.40;;;3.10;99.90;;;;;;5073035;28;20213;-79
2022/01/05 02:14:22;;;;;;;2.65;1.20;;;3.00;99.90;;;;;;5072927;28;20228;-79
2022/01/05 02:16:49;;;;;;;0.70;0.52;;;3.00;99.90;;;;;;5072209;28;20757;-79
2022/01/05 02:19:16;;;;;;;0.43;0.40;;;3.00;99.90;;;;;;5072565;28;20193;-81
2022/01/05 02:21:44;;;;;;;0.40;0.40;;;3.00;99.90;;;;;;5072726;28;20225;-78
2022/01/05 02:24:12;;;;;;;0.50;0.43;;;3.10;99.90;;;;;;5072876;28;20201;-80
2022/01/05 02:26:39;;;;;;;0.40;0.40;;;3.10;99.90;;;;;;5073097;28;20190;-79
2022/01/05 02:29:06;;;;;;;0.40;0.30;;;3.10;99.90;;;;;;5072625;28;20247;-80
2022/01/05 02:31:33;;;;;;;0.40;0.40;;;3.10;99.90;;;;;;5073058;28;20241;-80
2022/01/05 02:34:00;;;;;;;0.57;0.57;;;3.10;99.90;;;;;;5072733;28;20194;-80
2022/01/05 02:36:28;;;;;;;0.57;0.57;;;3.00;99.90;;;;;;5072965;28;20205;-80
2022/01/05 02:38:56;;;;;;;0.50;0.50;;;3.00;99.90;;;;;;5072551;28;20198;-80
2022/01/05 02:41:23;;;;;;;0.40;0.40;;;3.00;99.90;;;;;;5073286;28;20217;-80
2022/01/05 02:43:50;;;;;;;0.50;0.40;;;2.90;99.90;;;;;;5072602;28;20198;-79
2022/01/05 02:46:19;;;;;;;1.27;1.08;;;2.90;99.90;;;;;;5074333;28;20574;-78
2022/01/05 02:48:47;;;;;;;1.73;1.15;;;2.80;99.90;;;;;;5076139;28;20186;-79
2022/01/05 02:51:14;;;;;;;0.40;0.40;;;2.80;99.90;;;;;;5076257;28;20217;-78
2022/01/05 02:53:40;;;;;;;0.40;0.40;;;2.70;99.90;;;;;;5076138;28;20205;-79
2022/01/05 02:56:09;;;;;;;0.43;0.35;;;2.60;99.90;;;;;;5076161;28;20705;-79
2022/01/05 02:58:35;;;;;;;0.68;0.60;;;2.60;99.90;;;;;;5075813;28;20591;-79
2022/01/05 03:01:03;;;;;;;0.80;0.80;;;2.60;99.90;;;;;;5136117;22;20217;-80
2022/01/05 03:03:30;;;;;;;4.18;0.73;;;2.50;99.90;;;;;;5098238;28;20202;-80
2022/01/05 03:05:57;;;;;;;0.40;0.40;;;2.50;99.90;;;;;;5110305;28;20645;-80
2022/01/05 03:08:23;;;;;;;0.50;0.40;;;2.50;99.90;;;;;;5118696;28;20193;-79
2022/01/05 03:10:50;;;;;;;1.88;0.77;;;2.40;99.90;;;;;;5117531;28;20224;-80
2022/01/05 03:13:19;;;;;;;0.50;0.40;;;2.40;99.90;;;;;;5118294;28;20199;-80
2022/01/05 03:15:46;;;;;;;8.38;2.35;;;2.40;99.90;;;;;;5118122;28;20192;-77
2022/01/05 03:18:13;;;;;;;1.17;0.80;;;2.30;99.90;;;;;;5117950;28;20220;-80
2022/01/05 03:20:40;;;;;;;0.50;0.40;;;2.30;99.90;;;;;;5117907;28;20197;-80
2022/01/05 03:23:06;;;;;;;0.85;0.85;;;2.30;99.90;;;;;;5118023;28;20732;-79
2022/01/05 03:25:33;;;;;;;5.28;1.88;;;2.30;99.90;;;;;;5118133;28;20199;-79
2022/01/05 03:28:00;;;;;;;11.05;0.85;;;2.20;99.90;;;;;;5118532;28;20195;-80
2022/01/05 03:30:30;;;;;;;0.40;0.40;;;2.20;99.90;;;;;;5118191;28;20196;-80
2022/01/05 03:33:11;;;;;;;0.50;0.40;;;2.20;99.90;;;;;;5117808;28;20200;-80
2022/01/05 03:35:42;;;;;;;0.40;0.40;;;2.20;99.90;;;;;;5117681;28;20206;-79
2022/01/05 03:38:09;;;;;;;0.70;0.68;;;2.10;99.90;;;;;;5117394;28;20212;-80
2022/01/05 03:40:37;;;;;;;0.80;0.73;;;2.10;99.90;;;;;;5117606;28;20199;-80
2022/01/05 03:43:05;;;;;;;1.08;0.55;;;2.10;99.90;;;;;;5117762;28;20196;-80
2022/01/05 03:45:35;;;;;;;0.60;0.60;;;2.10;99.90;;;;;;5117722;28;20222;-80
2022/01/05 03:48:02;;;;;;;2.80;1.25;;;2.00;99.90;;;;;;5117770;28;20615;-80
2022/01/05 03:50:29;;;;;;;0.95;0.88;;;2.00;99.90;;;;;;5116857;28;20223;-80
2022/01/05 03:52:56;;;;;;;0.40;0.40;;;2.00;99.90;;;;;;5117233;28;20570;-80
2022/01/05 03:55:23;;;;;;;1.75;1.65;;;1.90;99.90;;;;;;5117530;28;20199;-81
2022/01/05 03:57:49;;;;;;;0.40;0.40;;;1.90;99.90;;;;;;5116652;28;20207;-80
2022/01/05 04:00:17;;;;;;;0.80;0.80;;;1.90;99.90;;;;;;5116882;28;20222;-80
2022/01/05 04:02:45;;;;;;;0.65;0.65;;;1.80;99.90;;;;;;5116937;28;20246;-80
2022/01/05 04:05:12;;;;;;;0.85;0.50;;;1.80;99.90;;;;;;5119833;28;20195;-80
2022/01/05 04:07:39;;;;;;;0.50;0.50;;;1.70;99.90;;;;;;5122995;28;20665;-80
2022/01/05 04:10:06;;;;;;;0.40;0.40;;;1.70;99.90;;;;;;5122066;28;20189;-80
2022/01/05 04:12:33;;;;;;;0.65;0.65;;;1.70;99.90;;;;;;5120450;28;20215;-80
2022/01/05 04:15:00;;;;;;;2.00;0.63;;;1.70;99.90;;;;;;5121806;28;20200;-80
2022/01/05 04:17:27;;;;;;;0.50;0.50;;;1.70;99.90;;;;;;5121873;28;20218;-80
2022/01/05 04:19:55;;;;;;;0.60;0.60;;;1.60;99.90;;;;;;5117965;28;20202;-80
2022/01/05 04:22:22;;;;;;;0.40;0.40;;;1.60;99.90;;;;;;5116880;28;20216;-80
2022/01/05 04:24:48;;;;;;;0.65;0.65;;;1.60;99.90;;;;;;5116557;28;20590;-80
2022/01/05 04:27:16;;;;;;;0.50;0.40;;;1.60;99.90;;;;;;5116887;28;20200;-80
2022/01/05 04:29:43;;;;;;;0.52;0.52;;;1.60;99.90;;;;;;5116101;28;20199;-80
2022/01/05 04:32:10;;;;;;;0.90;0.90;;;1.60;99.90;;;;;;5115738;28;20222;-80
2022/01/05 04:34:38;;;;;;;0.50;0.50;;;1.60;99.90;;;;;;5115752;28;20209;-81
2022/01/05 04:37:07;;;;;;;1.00;1.00;;;1.60;99.90;;;;;;5101782;28;20196;-81
2022/01/05 04:39:35;;;;;;;0.50;0.40;;;1.50;99.90;;;;;;5094429;28;20207;-81
2022/01/05 04:42:02;;;;;;;0.50;0.40;;;1.50;99.90;;;;;;5094827;28;20217;-81
2022/01/05 04:44:28;;;;;;;1.23;1.23;;;1.50;99.90;;;;;;5095103;28;20199;-80
2022/01/05 04:46:55;;;;;;;0.88;0.60;;;1.50;99.90;;;;;;5097463;28;20200;-80
2022/01/05 04:49:22;;;;;;;0.40;0.40;;;1.60;99.90;;;;;;5097167;28;20570;-80
2022/01/05 04:51:49;;;;;;;8.95;3.78;;;1.60;99.90;;;;;;5098608;28;20221;-81
2022/01/05 04:54:17;;;;;;;0.60;0.40;;;1.70;99.90;;;;;;5098382;28;20207;-82
2022/01/05 04:56:44;;;;;;;0.50;0.40;;;1.70;99.90;;;;;;5097189;28;20208;-81
2022/01/05 04:59:11;;;;;;;0.50;0.40;;;1.70;99.90;;;;;;5096123;28;20220;-80
2022/01/05 05:01:38;;;;;;;0.70;0.50;;;1.80;99.90;;;;;;5099034;28;20225;-82
2022/01/05 05:04:05;;;;;;;2.10;1.30;;;1.80;99.90;;;;;;5097335;28;20286;-82
2022/01/05 05:06:31;;;;;;;0.50;0.40;;;1.80;99.90;;;;;;5096371;28;20201;-80
2022/01/05 05:08:58;;;;;;;0.50;0.50;;;1.80;99.90;;;;;;5097785;28;20287;-81
2022/01/05 05:11:26;;;;;;;1.30;1.20;;;1.80;99.90;;;;;;5099446;28;20735;-81
2022/01/05 05:13:53;;;;;;;37.78;2.55;;;1.80;99.90;;;;;;5096097;28;20193;-82
2022/01/05 05:16:20;;;;;;;0.98;0.88;;;1.80;99.90;;;;;;5095379;28;20201;-81
2022/01/05 05:18:46;;;;;;;1.67;0.77;;;1.90;99.90;;;;;;5095185;28;20223;-80
2022/01/05 05:21:13;;;;;;;0.50;0.47;;;1.90;99.90;;;;;;5095358;28;20216;-81
2022/01/05 05:23:40;;;;;;;4.88;2.70;;;1.90;99.90;;;;;;5095384;28;20203;-81
2022/01/05 05:26:07;;;;;;;3.53;2.15;;;1.90;99.90;;;;;;5095553;28;20203;-81
2022/01/05 05:28:35;;;;;;;1.65;1.55;;;1.90;99.90;;;;;;5095488;28;20192;-79
2022/01/05 05:31:02;;;;;;;8.68;1.05;;;2.00;99.90;;;;;;5094629;28;20724;-81
2022/01/05 05:33:28;;;;;;;0.50;0.40;;;2.00;99.90;;;;;;5095238;28;20837;-81
2022/01/05 05:35:55;;;;;;;1.40;1.30;;;2.00;99.90;;;;;;5095206;28;20662;-81
2022/01/05 05:38:22;;;;;;;3.58;0.70;;;2.00;99.90;;;;;;5095951;28;20199;-81
2022/01/05 05:40:49;;;;;;;4.55;1.70;;;2.00;99.90;;;;;;5095349;28;20200;-82
2022/01/05 05:43:15;;;;;;;1.42;1.33;;;2.00;99.90;;;;;;5095277;28;20250;-81
2022/01/05 05:45:44;;;;;;;12.13;1.80;;;2.00;99.90;;;;;;5095553;28;20207;-80
2022/01/05 05:48:10;;;;;;;0.50;0.43;;;2.00;99.90;;;;;;5094210;28;20255;-81
2022/01/05 05:50:37;;;;;;;0.95;0.95;;;2.00;99.90;;;;;;5095068;28;20201;-82
2022/01/05 05:53:04;;;;;;;8.70;1.75;;;2.00;99.90;;;;;;5094931;28;20196;-80
2022/01/05 05:55:31;;;;;;;2.50;1.02;;;2.00;99.90;;;;;;5094277;28;20199;-82
2022/01/05 05:57:57;;;;;;;1.13;1.02;;;2.00;99.90;;;;;;5094507;28;20196;-82
2022/01/05 06:00:24;;;;;;;0.50;0.40;;;2.00;99.90;;;;;;5094042;28;20199;-80
2022/01/05 06:02:52;;;;;;;1.52;1.42;;;2.00;99.90;;;;;;5094173;28;20228;-81
2022/01/05 06:05:19;;;;;;;6.03;1.45;;;2.10;99.90;;;;;;5079303;28;20221;-80
2022/01/05 06:07:46;;;;;;;3.13;2.20;;;2.10;99.90;;;;;;5076649;28;20666;-81
2022/01/05 06:10:13;;;;;;;5.47;2.08;;;2.10;99.90;;;;;;5088295;28;20203;-78
2022/01/05 06:12:40;;;;;;;8.20;3.83;;;2.10;99.90;;;;;;5092346;28;20225;-78
2022/01/05 06:15:07;;;;;;;2.47;1.13;;;2.10;99.90;;;;;;5092418;28;20199;-79
2022/01/05 06:17:34;;;;;;;4.88;1.45;;;2.00;99.90;;;;;;5086046;28;20732;-79
2022/01/05 06:20:04;;;;;;;0.77;0.77;;;2.00;99.90;;;;;;5073773;28;20196;-81
2022/01/05 06:22:31;;;;;;;1.13;1.02;;;2.00;99.90;;;;;;5079487;28;20224;-80
2022/01/05 06:24:58;;;;;;;1.48;1.38;;;2.00;99.90;;;;;;5079133;28;20201;-80
2022/01/05 06:27:25;;;;;;;1.02;0.80;;;2.00;99.90;;;;;;5078791;28;20208;-79
2022/01/05 06:29:52;;;;;;;4.38;3.92;;;2.00;99.90;;;;;;5079201;28;20229;-80
2022/01/05 06:32:18;;;;;;;1.52;1.42;;;2.00;99.90;;;;;;5079546;28;20216;-79
2022/01/05 06:34:45;;;;;;;0.50;0.40;;;2.10;99.90;;;;;;5080108;28;20204;-80
2022/01/05 06:37:15;;;;;;;1.25;1.15;;;2.20;99.90;;;;;;5079076;28;20666;-79
2022/01/05 06:39:42;;;;;;;1.42;1.30;;;2.20;99.90;;;;;;5079207;28;20189;-80
2022/01/05 06:42:09;;;;;;;1.38;1.35;;;2.20;99.90;;;;;;5078465;28;20589;-80
2022/01/05 06:44:35;;;;;;;1.38;1.27;;;2.20;99.90;;;;;;5079617;28;20202;-80
2022/01/05 06:47:02;;;;;;;4.30;2.42;;;2.20;99.90;;;;;;5078138;28;20202;-80
2022/01/05 06:49:29;;;;;;;4.15;1.35;;;2.30;99.90;;;;;;5078687;28;20213;-80
2022/01/05 06:51:56;;;;;;;1.33;1.05;;;2.30;99.90;;;;;;5078812;28;20225;-81
2022/01/05 06:54:24;;;;;;;1.90;1.52;;;2.30;99.90;;;;;;5078926;28;20198;-80
2022/01/05 06:56:51;;;;;;;0.50;0.43;;;2.40;99.90;;;;;;5078684;28;20204;-79
2022/01/05 06:59:17;;;;;;;0.50;0.47;;;2.30;99.90;;;;;;5078753;28;20221;-80
2022/01/05 07:01:44;;;;;;;1.67;1.15;;;2.30;99.90;;;;;;5078506;28;20595;-80
2022/01/05 07:04:11;;;;;;;1.90;1.20;;;2.30;99.90;;;;;;5078484;28;20208;-80
2022/01/05 07:06:38;;;;;;;0.50;0.40;;;2.20;99.90;;;;;;5078154;28;20212;-80
2022/01/05 07:09:05;;;;;;;1.77;1.67;;;2.20;99.90;;;;;;5077701;28;20225;-79
2022/01/05 07:11:33;;;;;;;1.67;1.58;;;2.10;99.90;;;;;;5078593;28;20568;-81
2022/01/05 07:14:00;;;;;;;1.45;1.30;;;2.10;99.90;;;;;;5078598;28;20208;-80
2022/01/05 07:16:27;;;;;;;7.82;1.60;;;2.00;99.90;;;;;;5078845;28;20190;-80
2022/01/05 07:18:53;;;;;;;2.60;1.55;;;2.00;99.90;;;;;;5078452;28;20198;-81
2022/01/05 07:21:20;;;;;;;2.65;1.70;;;1.90;99.90;;;;;;5077812;28;20224;-81
2022/01/05 07:23:47;;;;;;;3.03;1.08;;;2.00;99.90;;;;;;5078104;28;20196;-80
2022/01/05 07:26:14;;;;;;;1.33;0.90;;;2.00;99.90;;;;;;5078183;28;20223;-80
2022/01/05 07:28:42;;;;;;;1.70;1.08;;;2.10;99.90;;;;;;5077614;28;20220;-79
2022/01/05 07:31:08;;;;;;;3.40;3.20;;;2.10;99.90;;;;;;5077776;28;20224;-79
2022/01/05 07:33:36;;;;;;;0.60;0.60;;;2.20;99.90;;;;;;5077106;28;20219;-80
2022/01/05 07:36:03;;;;;;;9.32;1.67;;;2.20;99.90;;;;;;5077957;28;20205;-80
2022/01/05 07:38:30;;;;;;;3.92;1.73;;;2.30;99.90;;;;;;5078414;28;20190;-81
2022/01/05 07:40:57;;;;;;;1.08;1.08;;;2.30;99.90;;;;;;5077950;28;20217;-80
2022/01/05 07:43:24;;;;;;;1.35;0.93;;;2.30;99.90;;;;;;5078281;28;20204;-80
2022/01/05 07:45:53;;;;;;;0.50;0.50;;;2.30;99.90;;;;;;5077329;28;20197;-78
2022/01/05 07:48:20;;;;;;;1.83;1.42;;;2.30;99.90;;;;;;5078234;28;20198;-81
2022/01/05 07:50:47;;;;;;;4.80;2.28;;;2.40;99.90;;;;;;5077358;28;20205;-81
2022/01/05 07:53:14;;;;;;;4.75;0.70;;;2.30;99.90;;;;;;5077513;28;20194;-81
2022/01/05 07:55:41;;;;;;;2.80;2.30;;;2.40;99.90;;;;;;5077447;28;20201;-77
2022/01/05 07:58:08;;;;;;;2.50;1.52;;;2.40;99.90;;;;;;5076998;28;20196;-81
2022/01/05 08:00:34;;;;;;;3.60;1.90;;;2.40;99.90;;;;;;5076861;28;20193;-81
2022/01/05 08:03:03;;;;;;;0.57;0.57;;;2.40;99.90;;;;;;5076401;28;20220;-82
2022/01/05 08:05:30;;;;;;;0.90;0.90;;;2.40;99.90;;;;;;5075872;28;20694;-81
2022/01/05 08:07:56;;;;;;;4.53;1.00;;;2.50;99.90;;;;;;5076210;28;20204;-80
2022/01/05 08:10:23;;;;;;;2.65;2.05;;;2.50;99.90;;;;;;5076281;28;20232;-81
2022/01/05 08:12:50;;;;;;;1.95;1.77;;;2.50;99.90;;;;;;5076752;28;20274;-82
2022/01/05 08:15:17;;;;;;;3.00;0.95;;;2.50;99.90;;;;;;5076209;28;20203;-78
2022/01/05 08:17:44;;;;;;;2.45;1.45;;;2.50;99.90;;;;;;5076327;28;20559;-78
2022/01/05 08:20:13;;;;;;;0.50;0.40;;;2.60;99.90;;;;;;5075958;28;20193;-79
2022/01/05 08:22:41;;;;;;;2.17;0.73;;;2.60;99.90;;;;;;5076847;28;20237;-81
2022/01/05 08:25:09;;;;;;;4.65;2.15;;;2.70;99.90;;;;;;5076506;28;20243;-81
2022/01/05 08:27:36;;;;;;;1.08;1.00;;;2.70;99.90;;;;;;5076961;28;20197;-81
2022/01/05 08:30:05;;;;;;;2.28;2.08;;;2.80;99.90;;;;;;5076342;28;20225;-81
2022/01/05 08:32:32;;;;;;;8.88;1.95;;;2.80;99.90;;;;;;5077311;28;20225;-81
2022/01/05 08:34:59;;;;;;;2.45;1.98;;;2.80;99.90;;;;;;5076402;28;20208;-82
2022/01/05 08:37:27;;;;;;;11.15;2.97;;;2.90;99.90;;;;;;5075985;28;20200;-81
2022/01/05 08:39:54;;;;;;;3.72;2.65;;;2.90;99.90;;;;;;5075420;28;20194;-81
2022/01/05 08:42:21;;;;;;;1.42;1.33;;;2.90;99.90;;;;;;5076218;28;20304;-81
2022/01/05 08:44:48;;;;;;;4.00;1.95;;;2.90;99.90;;;;;;5075956;28;20667;-81
2022/01/05 08:47:15;;;;;;;8.13;3.80;;;2.90;99.90;;;;;;5075826;28;20194;-81
2022/01/05 08:49:41;;;;;;;0.75;0.75;;;2.90;99.90;;;;;;5076070;28;20221;-81
2022/01/05 08:52:08;;;;;;;2.25;1.40;;;2.90;99.90;;;;;;5076416;28;20213;-81
2022/01/05 08:54:36;;;;;;;1.80;1.63;;;2.90;99.90;;;;;;5078056;28;20205;-81
2022/01/05 08:57:04;;;;;;;2.55;1.73;;;3.00;99.90;;;;;;5076361;28;20198;-80
2022/01/05 08:59:31;;;;;;;1.92;1.30;;;3.00;99.90;;;;;;5075099;28;20587;-81
2022/01/05 09:01:58;;;;;;;1.45;1.35;;;3.10;99.90;;;;;;5077770;28;20233;-81
2022/01/05 09:04:26;;;;;;;3.45;3.25;;;3.00;99.90;;;;;;5078470;28;20202;-82
2022/01/05 09:06:53;;;;;;;1.55;1.45;;;3.10;99.90;;;;;;5076173;28;20201;-82
2022/01/05 09:09:20;;;;;;;3.08;0.60;;;3.10;99.90;;;;;;5075299;28;20248;-82
2022/01/05 09:11:48;;;;;;;3.78;3.47;;;3.20;99.90;;;;;;5075446;28;20214;-82
2022/01/05 09:14:15;;;;;;;2.42;2.08;;;3.20;99.90;;;;;;5080862;28;20193;-82
2022/01/05 09:16:43;;;;;;;2.75;1.83;;;3.20;99.90;;;;;;5078567;28;20198;-81
2022/01/05 09:19:09;;;;;;;7.38;2.45;;;3.30;99.90;;;;;;5080073;28;20837;-81
2022/01/05 09:21:36;;;;;;;1.65;1.40;;;3.40;99.90;;;;;;5081673;28;20213;-79
2022/01/05 09:24:04;;;;;;;10.48;3.33;;;3.30;99.90;;;;;;5080612;28;20198;-81
2022/01/05 09:26:30;;;;;;;3.35;1.98;;;3.30;99.90;;;;;;5082537;28;20192;-81
2022/01/05 09:28:59;;;;;;;18.92;1.60;;;3.30;99.90;;;;;;5080890;28;20218;-79
2022/01/05 09:31:25;;;;;;;2.55;1.55;;;3.30;99.90;;;;;;5081839;28;20218;-81
2022/01/05 09:33:52;;;;;;;2.58;2.38;;;3.30;99.90;;;;;;5092951;28;20201;-82
2022/01/05 09:36:29;;;;;;;4.57;2.20;;;3.40;99.90;;;;;;5074027;28;20197;-81
2022/01/05 09:41:59;;;;;;;2.80;1.83;;;3.40;99.90;;;;;;5076365;28;20208;-80
2022/01/05 09:44:30;;;;;;;1.13;0.75;;;3.50;99.90;;;;;;5076179;28;20586;-81
2022/01/05 09:47:15;;;;;;;6.55;1.80;;;3.60;99.90;;;;;;5075303;28;20193;-81
2022/01/05 09:49:52;;;;;;;0.50;0.50;;;3.70;99.90;;;;;;5088905;28;20209;-81
2022/01/05 09:52:19;;;;;;;2.42;1.63;;;3.80;99.90;;;;;;5103846;28;20220;-80
2022/01/05 09:54:46;;;;;;;3.42;2.08;;;3.80;99.90;;;;;;5106114;28;20200;-80
2022/01/05 09:57:14;;;;;;;6.45;4.55;;;3.80;99.90;;;;;;5105999;28;20205;-79
2022/01/05 09:59:42;;;;;;;2.10;1.75;;;3.80;99.90;;;;;;5108947;28;20204;-80
2022/01/05 10:02:10;;;;;;;0.93;0.93;;;3.70;99.90;;;;;;5106006;28;20233;-80
2022/01/05 10:04:37;;;;;;;1.05;0.95;;;3.80;99.90;;;;;;5105956;28;20201;-81
2022/01/05 10:07:05;;;;;;;3.25;2.47;;;3.80;99.90;;;;;;5107917;28;20299;-80
2022/01/05 10:09:31;;;;;;;2.10;1.90;;;3.70;99.90;;;;;;5110850;28;20587;-81
2022/01/05 10:11:58;;;;;;;5.18;2.25;;;3.70;99.90;;;;;;5109919;28;20223;-79
2022/01/05 10:14:25;;;;;;;3.97;2.00;;;3.70;99.90;;;;;;5106802;28;20189;-82
2022/01/05 10:17:04;;;;;;;1.02;0.82;;;3.60;99.90;;;;;;5104072;28;20204;-80
2022/01/05 10:19:31;;;;;;;0.80;0.70;;;3.60;99.90;;;;;;5112688;28;20286;-80
2022/01/05 10:21:58;;;;;;;3.60;1.70;;;3.60;99.90;;;;;;5102479;28;20217;-80
2022/01/05 10:24:43;;;;;;;13.57;2.88;;;3.60;99.90;;;;;;5100336;28;20189;-82
2022/01/05 10:27:15;;;;;;;7.38;1.40;;;3.60;99.90;;;;;;5093081;28;20535;-81
2022/01/05 10:29:51;;;;;;;1.23;1.13;;;3.50;99.90;;;;;;5079325;28;20202;-79
2022/01/05 10:32:19;;;;;;;12.70;2.15;;;3.50;99.90;;;;;;5078625;28;20217;-79
2022/01/05 10:35:03;;;;;;;1.38;1.05;;;3.50;99.90;;;;;;5085938;28;20263;-81
2022/01/05 10:37:30;;;;;;;3.97;2.15;;;3.40;99.90;;;;;;5078843;28;20189;-81
2022/01/05 10:40:17;;;;;;;1.88;1.77;;;3.40;99.90;;;;;;5077415;28;20190;-81
2022/01/05 10:42:44;;;;;;;3.25;0.98;;;3.40;99.90;;;;;;5078510;28;20256;-79
2022/01/05 10:45:14;;;;;;;7.68;1.50;;;3.40;99.90;;;;;;5079990;28;20193;-81
2022/01/05 10:47:42;;;;;;;18.15;2.60;;;3.40;99.90;;;;;;5078858;28;20220;-81
2022/01/05 10:50:19;;;;;;;2.50;1.40;;;3.40;99.90;;;;;;5079114;28;20264;-81
2022/01/05 10:52:54;;;;;;;0.60;0.60;;;3.40;99.90;;;;;;5080170;28;20240;-81
2022/01/05 10:55:24;;;;;;;1.63;1.25;;;3.40;99.90;;;;;;5079189;28;20201;-81
2022/01/05 10:58:02;;;;;;;1.90;1.35;;;3.40;99.90;;;;;;5079823;28;20667;-80
2022/01/05 11:00:41;;;;;;;3.75;1.45;;;3.30;99.90;;;;;;5077979;28;20668;-81
2022/01/05 11:03:24;;;;;;;2.60;1.67;;;3.30;99.90;;;;;;5078732;28;20201;-80
2022/01/05 11:06:09;;;;;;;1.20;0.65;;;3.30;99.90;;;;;;5078497;28;20194;-81
2022/01/05 11:08:49;;;;;;;2.85;1.40;;;3.40;99.90;;;;;;5078149;28;20194;-80
2022/01/05 11:11:35;;;;;;;0.50;0.50;;;3.40;99.90;;;;;;5077632;28;20225;-80
2022/01/05 11:14:02;;;;;;;1.25;1.02;;;3.40;99.90;;;;;;5078501;28;20205;-81
2022/01/05 11:16:29;;;;;;;0.95;0.95;;;3.40;99.90;;;;;;5078010;28;20193;-81
2022/01/05 11:19:13;;;;;;;1.13;0.70;;;3.40;99.90;;;;;;5078772;28;20198;-81
2022/01/05 11:21:40;;;;;;;0.50;0.50;;;3.40;99.90;;;;;;5078134;28;20210;-81
2022/01/05 11:24:08;;;;;;;3.20;0.95;;;3.40;99.90;;;;;;5078131;28;20198;-82
2022/01/05 11:26:36;;;;;;;3.90;1.50;;;3.40;99.90;;;;;;5091050;28;20193;-81
2022/01/05 11:29:04;;;;;;;8.57;0.70;;;3.40;99.90;;;;;;5098532;28;20189;-82
2022/01/05 11:31:31;;;;;;;0.65;0.65;;;3.50;99.90;;;;;;5098686;28;20232;-82
2022/01/05 11:33:59;;;;;;;1.70;1.15;;;3.50;99.90;;;;;;5098381;28;20201;-80
2022/01/05 11:36:27;;;;;;;0.50;0.40;;;3.50;99.90;;;;;;5098770;28;20723;-81
2022/01/05 11:38:54;;;;;;;1.60;1.30;;;3.50;99.90;;;;;;5098118;28;20193;-82
2022/01/05 11:41:22;;;;;;;0.40;0.30;;;3.60;99.90;;;;;;5098210;28;20217;-81
2022/01/05 11:43:49;;;;;;;0.50;0.40;;;3.60;99.90;;;;;;5097523;28;20213;-80
2022/01/05 11:46:17;;;;;;;2.05;1.90;;;3.60;99.90;;;;;;5097879;28;20200;-81
2022/01/05 11:48:59;;;;;;;5.85;1.63;;;3.70;99.90;;;;;;5097373;28;20204;-78
2022/01/05 11:51:32;;;;;;;7.13;2.05;;;3.60;99.90;;;;;;5097583;28;20213;-81
2022/01/05 11:54:13;;;;;;;3.03;2.88;;;3.60;99.90;;;;;;5096853;28;20189;-81
2022/01/05 11:56:41;;;;;;;6.75;2.78;;;3.60;99.90;;;;;;5097379;28;20681;-82
2022/01/05 11:59:23;;;;;;;1.38;0.70;;;3.60;99.90;;;;;;5097368;28;20450;-82
2022/01/05 12:02:02;;;;;;;0.75;0.75;;;3.60;99.90;;;;;;5097422;28;20721;-80
2022/01/05 12:04:29;;;;;;;8.68;1.50;;;3.70;99.90;;;;;;5082352;28;20196;-81
2022/01/05 12:07:07;;;;;;;3.42;1.52;;;3.70;99.90;;;;;;5097341;28;20202;-81
2022/01/05 12:09:35;;;;;;;0.85;0.85;;;3.70;99.90;;;;;;5096109;28;20193;-81
2022/01/05 12:12:27;;;;;;;1.48;1.38;;;3.70;99.90;;;;;;5090808;28;20213;-81
2022/01/05 12:14:55;;;;;;;0.50;0.40;;;3.70;99.90;;;;;;5096866;28;20201;-81
2022/01/05 12:17:22;;;;;;;2.45;0.73;;;3.80;99.90;;;;;;5078503;28;20226;-78
2022/01/05 12:20:11;;;;;;;1.52;1.38;;;3.80;99.90;;;;;;5076097;28;20193;-82
2022/01/05 12:22:40;;;;;;;0.90;0.90;;;3.80;99.90;;;;;;5076610;28;20305;-79
2022/01/05 12:25:10;;;;;;;1.13;1.02;;;3.90;99.90;;;;;;5076483;28;20281;-81
2022/01/05 12:27:39;;;;;;;1.90;1.15;;;4.00;99.90;;;;;;5077841;28;20281;-81
2022/01/05 12:30:48;;;;;;;0.98;0.95;;;4.00;99.90;;;;;;5077529;28;20312;-81
2022/01/05 12:33:17;;;;;;;0.40;0.40;;;4.10;99.90;;;;;;5077965;28;20285;-82
2022/01/05 12:35:56;;;;;;;0.77;0.77;;;4.10;99.90;;;;;;5076159;28;20194;-78
2022/01/05 12:38:37;;;;;;;0.40;0.40;;;4.20;99.90;;;;;;5075458;28;20285;-81
2022/01/05 12:41:28;;;;;;;1.40;1.30;;;4.30;99.90;;;;;;5075724;28;20209;-81
2022/01/05 12:43:56;;;;;;;1.08;0.98;;;4.30;99.90;;;;;;5075749;28;20198;-81
2022/01/05 12:46:44;;;;;;;0.50;0.50;;;4.30;99.90;;;;;;5078389;28;20244;-82
2022/01/05 12:49:13;;;;;;;0.40;0.40;;;4.30;99.90;;;;;;5071339;28;20225;-82
2022/01/05 12:51:46;;;;;;;1.15;0.93;;;4.40;99.90;;;;;;5075839;28;20285;-81
2022/01/05 12:54:18;;;;;;;0.40;0.40;;;4.40;99.90;;;;;;5076308;28;20233;-82
2022/01/05 12:56:48;;;;;;;0.50;0.50;;;4.40;99.90;;;;;;5077495;28;20194;-81
2022/01/05 12:59:18;;;;;;;1.08;1.02;;;4.40;99.90;;;;;;5075324;28;20285;-80
2022/01/05 13:01:45;;;;;;;0.40;0.30;;;4.40;99.90;;;;;;5075491;28;20234;-82
2022/01/05 13:04:14;;;;;;;0.40;0.40;;;4.40;99.90;;;;;;5075932;28;20262;-80
2022/01/05 13:06:43;;;;;;;13.27;1.13;;;4.40;99.90;;;;;;5076130;28;20220;-80
2022/01/05 13:09:12;;;;;;;0.40;0.40;;;4.40;99.90;;;;;;5075083;28;20300;-80